Time;durP1;ratioP1;P1;durP2;ratioP2;P2;SDS_P1;SDS_P2;PMS_P1;PMS_P2;Temp;Humidity;BMP_temperature;BMP_pressure;BME280_temperature;BME280_humidity;BME280_pressure;Samples;Min_cycle;Max_cycle;Signal;HPM_P1;HPM_P2
2021/08/17 00:01:52;;;;;;;13.38;2.05;;;15.30;95.90;;;;;;5052779;28;20033;-71
2021/08/17 00:04:18;;;;;;;14.02;2.45;;;15.20;96.00;;;;;;5053400;28;20060;-71
2021/08/17 00:06:44;;;;;;;8.85;2.55;;;15.30;96.10;;;;;;5052724;28;20045;-69
2021/08/17 00:09:09;;;;;;;10.93;2.28;;;15.20;96.20;;;;;;5052497;28;20025;-72
2021/08/17 00:11:35;;;;;;;15.25;2.10;;;15.20;96.40;;;;;;5052681;28;20029;-71
2021/08/17 00:14:00;;;;;;;10.82;2.53;;;15.20;96.60;;;;;;5052705;28;20106;-72
2021/08/17 00:16:26;;;;;;;10.45;2.20;;;15.20;96.90;;;;;;5053210;28;20045;-71
2021/08/17 00:18:52;;;;;;;8.10;1.83;;;15.20;97.40;;;;;;5053308;28;20028;-70
2021/08/17 00:21:18;;;;;;;15.95;3.17;;;15.20;97.60;;;;;;5052955;28;20033;-71
2021/08/17 00:23:43;;;;;;;11.98;2.70;;;15.10;98.10;;;;;;5052460;28;20041;-70
2021/08/17 00:26:09;;;;;;;15.27;2.58;;;15.00;98.40;;;;;;5052477;28;20052;-70
2021/08/17 00:28:34;;;;;;;9.57;2.85;;;14.90;98.90;;;;;;5052425;28;20037;-71
2021/08/17 00:31:00;;;;;;;8.73;2.28;;;15.00;98.90;;;;;;5052676;28;20033;-70
2021/08/17 00:33:25;;;;;;;10.93;2.67;;;15.10;98.60;;;;;;5051083;28;20460;-70
2021/08/17 00:35:54;;;;;;;12.35;2.17;;;15.00;98.90;;;;;;5052392;28;20021;-71
2021/08/17 00:38:20;;;;;;;15.00;2.85;;;15.00;99.00;;;;;;5052270;28;20039;-71
2021/08/17 00:40:46;;;;;;;15.95;2.58;;;14.90;99.10;;;;;;5051977;28;20025;-70
2021/08/17 00:43:11;;;;;;;9.63;2.33;;;15.00;99.20;;;;;;5052420;28;20028;-71
2021/08/17 00:45:37;;;;;;;13.73;2.15;;;15.00;99.10;;;;;;5052193;28;20025;-71
2021/08/17 00:48:03;;;;;;;13.82;2.80;;;15.00;99.50;;;;;;5051928;28;20489;-70
2021/08/17 00:50:30;;;;;;;14.55;2.70;;;14.90;99.50;;;;;;5052210;28;20041;-69
2021/08/17 00:52:57;;;;;;;15.53;3.33;;;15.00;99.40;;;;;;5051930;28;20031;-69
2021/08/17 00:55:24;;;;;;;13.32;2.75;;;14.90;99.50;;;;;;5051447;28;20726;-69
2021/08/17 00:57:49;;;;;;;17.83;2.92;;;14.90;99.60;;;;;;5051715;28;20033;-71
2021/08/17 01:00:15;;;;;;;11.10;2.60;;;14.90;99.60;;;;;;5051724;28;20029;-69
2021/08/17 01:02:42;;;;;;;15.07;2.72;;;15.00;99.60;;;;;;5051690;28;20025;-69
2021/08/17 01:05:08;;;;;;;10.90;2.47;;;15.00;99.70;;;;;;5051866;28;20029;-70
2021/08/17 01:07:35;;;;;;;14.02;3.53;;;15.00;99.80;;;;;;5051659;28;20028;-70
2021/08/17 01:10:01;;;;;;;8.38;2.80;;;14.90;99.90;;;;;;5051930;28;20033;-70
2021/08/17 01:12:27;;;;;;;12.57;2.40;;;15.00;99.80;;;;;;5051435;28;20033;-70
2021/08/17 01:14:53;;;;;;;13.80;3.65;;;14.90;99.80;;;;;;5051480;28;20056;-70
2021/08/17 01:17:20;;;;;;;11.95;3.03;;;15.00;99.80;;;;;;5051379;28;20068;-70
2021/08/17 01:19:46;;;;;;;10.85;2.33;;;14.90;99.90;;;;;;5051329;28;20083;-70
2021/08/17 01:22:12;;;;;;;21.48;3.35;;;14.90;99.90;;;;;;5051494;28;20429;-70
2021/08/17 01:24:38;;;;;;;13.13;2.45;;;15.00;99.90;;;;;;5051647;28;20119;-70
2021/08/17 01:27:04;;;;;;;18.23;3.38;;;15.00;99.90;;;;;;5051285;28;20124;-70
2021/08/17 01:29:30;;;;;;;13.48;3.47;;;15.00;99.90;;;;;;5051171;28;20048;-70
2021/08/17 01:31:57;;;;;;;22.67;4.43;;;15.00;99.90;;;;;;5050992;28;20408;-69
2021/08/17 01:34:23;;;;;;;11.02;2.70;;;15.00;99.90;;;;;;5051456;28;20070;-70
2021/08/17 01:36:49;;;;;;;25.20;4.43;;;15.10;99.90;;;;;;5034157;28;20053;-70
2021/08/17 01:39:15;;;;;;;13.10;2.88;;;15.10;99.90;;;;;;5031196;28;20432;-70
2021/08/17 01:41:42;;;;;;;11.40;3.55;;;15.00;99.90;;;;;;5030985;28;20038;-70
2021/08/17 01:44:09;;;;;;;16.80;3.92;;;15.10;99.90;;;;;;5031121;28;20048;-70
2021/08/17 01:46:35;;;;;;;14.70;3.37;;;15.00;99.90;;;;;;5030939;28;20456;-69
2021/08/17 01:49:01;;;;;;;22.98;4.28;;;15.10;99.90;;;;;;5031438;28;20028;-69
2021/08/17 01:51:26;;;;;;;33.22;5.13;;;15.10;99.90;;;;;;5031205;28;20341;-69
2021/08/17 01:53:52;;;;;;;19.48;3.40;;;15.00;99.90;;;;;;5031144;28;20478;-69
2021/08/17 01:56:18;;;;;;;27.92;4.65;;;15.00;99.90;;;;;;5030780;28;20044;-70
2021/08/17 01:58:44;;;;;;;23.83;3.75;;;15.10;99.90;;;;;;5030775;28;20017;-70
2021/08/17 02:01:11;;;;;;;17.75;3.33;;;15.00;99.90;;;;;;5031183;28;20088;-71
2021/08/17 02:03:37;;;;;;;17.08;3.78;;;15.10;99.90;;;;;;5030743;28;20029;-71
2021/08/17 02:06:03;;;;;;;13.93;3.00;;;15.10;99.90;;;;;;5030516;28;20411;-71
2021/08/17 02:08:30;;;;;;;17.67;3.70;;;15.10;99.90;;;;;;5030931;28;20477;-71
2021/08/17 02:10:55;;;;;;;24.70;4.45;;;15.10;99.90;;;;;;5030731;28;20021;-68
2021/08/17 02:13:23;;;;;;;21.10;4.43;;;15.10;99.90;;;;;;5030979;28;20025;-70
2021/08/17 02:15:49;;;;;;;23.98;3.85;;;15.20;99.90;;;;;;5030700;28;20059;-68
2021/08/17 02:18:16;;;;;;;21.42;3.85;;;15.20;99.90;;;;;;5030722;28;20066;-69
2021/08/17 02:20:41;;;;;;;24.15;4.13;;;15.30;99.80;;;;;;5030707;28;20079;-71
2021/08/17 02:23:07;;;;;;;25.23;4.15;;;15.30;99.80;;;;;;5030494;28;20045;-69
2021/08/17 02:25:32;;;;;;;25.65;3.97;;;15.20;99.80;;;;;;5030536;28;20063;-69
2021/08/17 02:27:58;;;;;;;25.50;3.92;;;15.30;99.80;;;;;;5030953;28;20469;-69
2021/08/17 02:30:24;;;;;;;24.38;3.75;;;15.20;99.80;;;;;;5030611;28;20036;-71
2021/08/17 02:32:50;;;;;;;29.80;4.20;;;15.20;99.70;;;;;;5030490;28;20053;-69
2021/08/17 02:35:16;;;;;;;21.40;4.03;;;15.20;99.80;;;;;;5030548;28;20069;-70
2021/08/17 02:37:41;;;;;;;18.83;3.33;;;15.20;99.70;;;;;;5030865;28;20339;-69
2021/08/17 02:40:07;;;;;;;21.80;4.93;;;15.30;99.60;;;;;;5030874;28;20037;-70
2021/08/17 02:42:33;;;;;;;27.67;4.38;;;15.20;99.70;;;;;;5029253;28;20475;-69
2021/08/17 02:45:00;;;;;;;21.67;4.65;;;15.20;99.50;;;;;;5030340;28;20030;-69
2021/08/17 02:47:26;;;;;;;24.25;3.85;;;15.20;99.40;;;;;;5030477;28;20470;-69
2021/08/17 02:49:52;;;;;;;18.65;4.40;;;15.20;99.40;;;;;;5030362;28;20029;-69
2021/08/17 02:52:18;;;;;;;19.80;3.47;;;15.30;99.20;;;;;;5030890;28;20536;-70
2021/08/17 02:54:44;;;;;;;23.60;3.75;;;15.30;99.10;;;;;;5029292;28;20116;-70
2021/08/17 02:57:09;;;;;;;33.42;4.40;;;15.30;99.10;;;;;;5030317;28;20241;-70
2021/08/17 02:59:35;;;;;;;24.85;4.40;;;15.30;99.10;;;;;;5030291;28;20060;-70
2021/08/17 03:02:01;;;;;;;24.67;4.60;;;15.30;99.00;;;;;;5030187;28;20045;-69
2021/08/17 03:04:27;;;;;;;25.73;4.72;;;15.30;99.00;;;;;;5029657;28;20482;-70
2021/08/17 03:06:55;;;;;;;23.73;4.05;;;15.30;98.90;;;;;;5030458;28;20132;-70
2021/08/17 03:09:20;;;;;;;23.67;3.60;;;15.30;98.80;;;;;;5029855;28;20506;-70
2021/08/17 03:11:46;;;;;;;21.85;4.63;;;15.40;98.70;;;;;;5019347;28;20026;-70
2021/08/17 03:14:12;;;;;;;16.30;4.00;;;15.30;98.70;;;;;;5016352;28;20033;-70
2021/08/17 03:16:37;;;;;;;18.42;3.75;;;15.30;98.60;;;;;;5030008;28;20039;-70
2021/08/17 03:19:03;;;;;;;18.13;3.75;;;15.30;98.50;;;;;;5031767;28;20043;-70
2021/08/17 03:21:29;;;;;;;24.42;3.42;;;15.30;98.50;;;;;;5033824;28;20049;-71
2021/08/17 03:23:54;;;;;;;26.42;4.90;;;15.30;98.50;;;;;;5033423;28;20055;-70
2021/08/17 03:26:20;;;;;;;20.00;4.22;;;15.30;98.30;;;;;;5033757;28;20029;-70
2021/08/17 03:28:45;;;;;;;27.38;5.22;;;15.30;98.20;;;;;;5033297;28;20029;-70
2021/08/17 03:31:11;;;;;;;24.25;4.28;;;15.40;98.20;;;;;;5033648;28;20025;-70
2021/08/17 03:33:37;;;;;;;20.25;3.78;;;15.30;98.10;;;;;;5033660;28;20057;-70
2021/08/17 03:36:06;;;;;;;17.75;3.85;;;15.30;98.20;;;;;;5033669;28;20064;-70
2021/08/17 03:38:33;;;;;;;17.25;3.30;;;15.30;98.20;;;;;;5033454;28;20029;-70
2021/08/17 03:40:58;;;;;;;14.02;3.05;;;15.30;98.10;;;;;;5033481;28;20283;-70
2021/08/17 03:43:25;;;;;;;18.35;3.30;;;15.40;98.00;;;;;;5033685;28;20084;-70
2021/08/17 03:45:51;;;;;;;26.92;3.40;;;15.40;98.30;;;;;;5032137;28;20108;-70
2021/08/17 03:48:17;;;;;;;22.48;3.75;;;15.30;98.00;;;;;;5032145;28;20033;-69
2021/08/17 03:50:43;;;;;;;16.08;3.55;;;15.20;98.20;;;;;;5031801;28;20117;-70
2021/08/17 03:53:08;;;;;;;17.05;3.55;;;15.20;98.30;;;;;;5033153;28;20137;-70
2021/08/17 03:55:34;;;;;;;18.00;3.55;;;15.20;98.20;;;;;;5033153;28;20464;-70
2021/08/17 03:57:59;;;;;;;17.80;3.38;;;15.20;98.10;;;;;;5033435;28;20018;-71
2021/08/17 04:00:27;;;;;;;18.27;3.90;;;15.20;98.00;;;;;;5033062;28;20038;-71
2021/08/17 04:02:54;;;;;;;;;;;15.30;97.90;;;;;;5033152;28;20513;-71
2021/08/17 04:05:20;;;;;;;19.50;2.95;;;15.30;97.90;;;;;;5025814;28;19913;-71
2021/08/17 04:07:45;;;;;;;15.10;3.30;;;15.20;97.80;;;;;;5015556;28;20034;-71
2021/08/17 04:10:11;;;;;;;16.05;2.53;;;15.20;97.70;;;;;;5032963;28;20033;-71
2021/08/17 04:12:37;;;;;;;13.25;3.22;;;15.20;97.60;;;;;;5032785;28;20064;-70
2021/08/17 04:15:05;;;;;;;15.00;3.65;;;15.20;97.60;;;;;;5032820;28;20064;-70
2021/08/17 04:17:30;;;;;;;19.60;3.57;;;15.20;97.50;;;;;;5032515;28;20124;-72
2021/08/17 04:19:56;;;;;;;14.68;3.10;;;15.30;97.50;;;;;;5032724;28;20342;-71
2021/08/17 04:22:21;;;;;;;18.27;3.78;;;15.20;97.70;;;;;;5032686;28;20025;-71
2021/08/17 04:24:48;;;;;;;14.95;3.13;;;15.20;97.90;;;;;;5031598;28;20030;-71
2021/08/17 04:27:13;;;;;;;16.42;3.58;;;15.00;98.30;;;;;;5032383;28;20022;-71
2021/08/17 04:29:39;;;;;;;19.45;3.55;;;15.00;98.40;;;;;;5031134;28;20474;-71
2021/08/17 04:32:06;;;;;;;13.32;3.25;;;15.00;98.60;;;;;;5032408;28;20060;-71
2021/08/17 04:34:32;;;;;;;18.65;3.30;;;15.00;98.40;;;;;;5032466;28;20021;-70
2021/08/17 04:36:58;;;;;;;17.13;3.10;;;15.10;98.30;;;;;;5032931;28;20075;-70
2021/08/17 04:39:23;;;;;;;14.88;2.90;;;15.00;98.30;;;;;;5032384;28;20175;-70
2021/08/17 04:41:49;;;;;;;14.48;3.35;;;15.00;98.20;;;;;;5032132;28;20371;-70
2021/08/17 04:44:14;;;;;;;23.98;3.67;;;15.00;98.20;;;;;;5032119;28;20128;-71
2021/08/17 04:46:40;;;;;;;13.70;3.75;;;15.10;98.00;;;;;;5032262;28;20185;-71
2021/08/17 04:49:07;;;;;;;14.25;3.33;;;15.10;97.80;;;;;;5032699;28;20060;-70
2021/08/17 04:51:33;;;;;;;14.70;2.58;;;15.00;97.60;;;;;;5032033;28;20064;-71
2021/08/17 04:53:59;;;;;;;19.13;3.25;;;15.10;97.50;;;;;;5031791;28;20119;-70
2021/08/17 04:56:24;;;;;;;21.08;3.00;;;15.00;97.40;;;;;;5032109;28;20041;-70
2021/08/17 04:58:51;;;;;;;16.90;3.15;;;15.10;97.30;;;;;;5031743;28;20041;-70
2021/08/17 05:01:17;;;;;;;10.70;2.63;;;15.00;97.00;;;;;;5032261;28;20112;-80
2021/08/17 05:03:42;;;;;;;11.57;2.80;;;15.00;97.10;;;;;;5031658;28;20183;-72
2021/08/17 05:06:08;;;;;;;18.48;3.30;;;15.10;97.20;;;;;;5030821;28;20033;-70
2021/08/17 05:08:33;;;;;;;17.27;2.67;;;15.10;97.10;;;;;;5031880;28;20033;-71
2021/08/17 05:10:59;;;;;;;17.80;3.33;;;15.20;97.00;;;;;;5031700;28;20132;-70
2021/08/17 05:13:25;;;;;;;19.63;4.13;;;15.20;97.00;;;;;;5031895;28;20422;-70
2021/08/17 05:15:50;;;;;;;17.30;3.17;;;15.20;97.10;;;;;;5031548;28;20545;-70
2021/08/17 05:18:16;;;;;;;17.17;3.22;;;15.20;97.10;;;;;;5030583;28;20117;-70
2021/08/17 05:20:42;;;;;;;12.63;3.00;;;15.20;97.00;;;;;;5031572;28;20092;-71
2021/08/17 05:23:07;;;;;;;9.75;2.40;;;15.30;97.00;;;;;;5031014;28;20148;-72
2021/08/17 05:25:33;;;;;;;20.85;3.05;;;15.20;96.90;;;;;;5031470;28;20029;-71
2021/08/17 05:27:58;;;;;;;10.27;2.70;;;15.20;96.80;;;;;;5031885;28;20052;-71
2021/08/17 05:30:24;;;;;;;13.82;2.70;;;15.20;96.80;;;;;;5031193;28;20333;-71
2021/08/17 05:32:51;;;;;;;21.48;3.28;;;15.20;96.90;;;;;;5031075;28;20037;-72
2021/08/17 05:35:17;;;;;;;14.68;2.45;;;15.30;96.90;;;;;;5031141;28;20108;-70
2021/08/17 05:37:43;;;;;;;18.40;2.47;;;15.30;96.80;;;;;;5031384;28;20029;-70
2021/08/17 05:40:09;;;;;;;19.75;2.63;;;15.30;96.80;;;;;;5031534;28;20096;-69
2021/08/17 05:42:35;;;;;;;17.88;2.65;;;15.40;96.90;;;;;;5030856;28;20250;-70
2021/08/17 05:45:01;;;;;;;15.80;2.58;;;15.40;96.70;;;;;;5031011;28;20030;-69
2021/08/17 05:47:27;;;;;;;13.68;2.83;;;15.40;96.60;;;;;;5031017;28;20030;-69
2021/08/17 05:49:53;;;;;;;25.50;4.03;;;15.40;96.60;;;;;;5030898;28;20056;-68
2021/08/17 05:52:18;;;;;;;11.57;2.90;;;15.50;96.60;;;;;;5031106;28;20094;-69
2021/08/17 05:54:44;;;;;;;18.95;3.00;;;15.50;96.70;;;;;;5030754;28;20053;-69
2021/08/17 05:57:10;;;;;;;24.85;6.47;;;15.50;96.40;;;;;;5030663;28;20329;-69
2021/08/17 05:59:35;;;;;;;12.43;3.20;;;15.50;96.20;;;;;;5030917;28;20053;-70
2021/08/17 06:02:03;;;;;;;17.85;2.58;;;15.60;96.20;;;;;;5032263;28;20034;-69
2021/08/17 06:04:29;;;;;;;19.75;3.38;;;15.60;96.10;;;;;;5050604;28;20089;-69
2021/08/17 06:06:55;;;;;;;12.40;2.22;;;15.60;96.20;;;;;;5051215;28;20427;-69
2021/08/17 06:09:21;;;;;;;13.13;2.38;;;15.60;95.80;;;;;;5050521;28;20158;-70
2021/08/17 06:11:48;;;;;;;14.18;2.63;;;15.50;95.80;;;;;;5050501;28;20032;-70
2021/08/17 06:14:14;;;;;;;14.73;2.30;;;15.60;95.80;;;;;;5050525;28;20033;-70
2021/08/17 06:16:41;;;;;;;14.57;2.78;;;15.60;95.80;;;;;;5049064;28;20025;-70
2021/08/17 06:19:07;;;;;;;15.70;3.28;;;15.60;95.70;;;;;;5050808;28;20021;-70
2021/08/17 06:21:34;;;;;;;19.80;2.95;;;15.60;95.50;;;;;;5050397;28;20098;-70
2021/08/17 06:24:00;;;;;;;12.43;2.63;;;15.70;95.50;;;;;;5050229;28;20060;-70
2021/08/17 06:26:26;;;;;;;13.82;2.20;;;15.60;95.40;;;;;;5050814;28;20179;-70
2021/08/17 06:28:51;;;;;;;12.95;2.50;;;15.60;95.50;;;;;;5050460;28;20451;-70
2021/08/17 06:31:22;;;;;;;23.58;3.08;;;15.60;95.30;;;;;;5050683;28;20440;-69
2021/08/17 06:33:55;;;;;;;10.00;2.13;;;15.70;95.30;;;;;;5050340;28;20032;-69
2021/08/17 06:36:21;;;;;;;14.98;2.38;;;15.70;95.30;;;;;;5050135;28;20030;-69
2021/08/17 06:38:47;;;;;;;14.88;2.75;;;15.60;95.20;;;;;;5049156;28;20411;-69
2021/08/17 06:41:13;;;;;;;14.75;2.75;;;15.50;95.10;;;;;;5050285;28;20126;-69
2021/08/17 06:43:39;;;;;;;16.23;3.45;;;15.60;95.10;;;;;;5049995;28;20032;-69
2021/08/17 06:46:04;;;;;;;10.38;2.13;;;15.60;95.10;;;;;;5050606;28;20025;-69
2021/08/17 06:48:31;;;;;;;12.57;2.28;;;15.60;95.00;;;;;;5050166;28;20021;-70
2021/08/17 06:50:56;;;;;;;14.55;2.67;;;15.60;94.90;;;;;;5050587;28;20163;-70
2021/08/17 06:53:22;;;;;;;10.23;2.70;;;15.70;95.00;;;;;;5051284;28;20025;-69
2021/08/17 06:55:48;;;;;;;10.57;2.85;;;15.80;94.80;;;;;;5054081;28;20065;-70
2021/08/17 06:58:13;;;;;;;10.25;2.15;;;15.80;94.70;;;;;;5054543;28;20112;-70
2021/08/17 07:00:41;;;;;;;14.05;2.47;;;15.90;94.60;;;;;;5054202;28;20386;-70
2021/08/17 07:03:07;;;;;;;11.57;3.08;;;15.90;94.50;;;;;;5054026;28;20033;-70
2021/08/17 07:05:41;;;;;;;15.90;2.78;;;16.00;94.40;;;;;;5054098;28;20526;-69
2021/08/17 07:08:07;;;;;;;9.43;2.00;;;16.00;94.40;;;;;;5053609;28;20037;-70
2021/08/17 07:10:34;;;;;;;14.80;2.67;;;16.10;94.20;;;;;;5053554;28;20044;-70
2021/08/17 07:12:59;;;;;;;12.00;2.50;;;16.10;93.90;;;;;;5053884;28;20107;-70
2021/08/17 07:15:25;;;;;;;15.43;2.67;;;16.20;93.80;;;;;;5054042;28;20128;-70
2021/08/17 07:17:51;;;;;;;24.05;2.70;;;16.30;93.40;;;;;;5053661;28;20049;-70
2021/08/17 07:20:16;;;;;;;13.43;2.60;;;16.30;93.50;;;;;;5054001;28;20037;-70
2021/08/17 07:22:42;;;;;;;11.93;2.20;;;16.40;93.20;;;;;;5053343;28;20052;-68
2021/08/17 07:25:08;;;;;;;10.52;1.92;;;16.50;93.10;;;;;;5053955;28;20037;-67
2021/08/17 07:27:34;;;;;;;15.88;2.38;;;16.60;92.80;;;;;;5052385;28;20057;-70
2021/08/17 07:30:00;;;;;;;12.85;2.72;;;16.70;92.90;;;;;;5052611;28;20045;-69
2021/08/17 07:32:25;;;;;;;15.05;2.03;;;16.70;92.70;;;;;;5053598;28;20060;-70
2021/08/17 07:34:51;;;;;;;18.63;2.40;;;16.70;92.70;;;;;;5053455;28;20029;-71
2021/08/17 07:37:16;;;;;;;12.13;2.03;;;16.70;92.40;;;;;;5053670;28;20033;-69
2021/08/17 07:39:42;;;;;;;14.40;2.65;;;16.80;92.10;;;;;;5053056;28;20029;-70
2021/08/17 07:42:07;;;;;;;13.88;2.60;;;16.80;92.00;;;;;;5053134;28;20502;-70
2021/08/17 07:44:34;;;;;;;16.85;2.20;;;16.80;92.10;;;;;;5052904;28;20025;-71
2021/08/17 07:47:00;;;;;;;21.13;2.92;;;16.90;92.00;;;;;;5053091;28;20142;-68
2021/08/17 07:49:26;;;;;;;15.07;2.42;;;16.90;91.90;;;;;;5053165;28;20641;-69
2021/08/17 07:51:52;;;;;;;11.85;2.20;;;17.00;91.70;;;;;;5051839;28;20128;-69
2021/08/17 07:54:18;;;;;;;12.05;2.33;;;17.10;91.70;;;;;;5052762;28;20056;-70
2021/08/17 07:56:43;;;;;;;16.60;2.40;;;17.10;91.70;;;;;;5052864;28;20043;-70
2021/08/17 07:59:09;;;;;;;15.18;2.30;;;17.20;91.50;;;;;;5052791;28;20033;-70
2021/08/17 08:01:34;;;;;;;9.40;2.38;;;17.40;91.50;;;;;;5052579;28;20079;-71
2021/08/17 08:04:00;;;;;;;12.27;2.40;;;17.40;91.40;;;;;;5052709;28;20025;-70
2021/08/17 08:06:26;;;;;;;12.63;2.25;;;17.40;91.10;;;;;;5052565;28;20493;-69
2021/08/17 08:08:52;;;;;;;12.02;2.25;;;17.50;90.80;;;;;;5051291;28;20048;-70
2021/08/17 08:11:18;;;;;;;12.52;2.15;;;17.60;90.80;;;;;;5052439;28;20374;-70
2021/08/17 08:13:43;;;;;;;13.43;3.15;;;17.80;90.70;;;;;;5052553;28;20028;-69
2021/08/17 08:16:09;;;;;;;14.63;2.88;;;17.90;90.50;;;;;;5053287;28;20028;-71
2021/08/17 08:18:35;;;;;;;7.55;2.17;;;18.40;90.50;;;;;;5052405;28;20463;-71
2021/08/17 08:21:00;;;;;;;14.88;2.63;;;18.50;89.90;;;;;;5051345;28;20032;-72
2021/08/17 08:23:26;;;;;;;13.60;2.80;;;18.80;89.80;;;;;;5052417;28;20045;-69
2021/08/17 08:25:52;;;;;;;11.27;2.25;;;18.80;88.00;;;;;;5052655;28;20466;-71
2021/08/17 08:28:18;;;;;;;17.08;3.33;;;18.70;88.00;;;;;;5051701;28;20050;-69
2021/08/17 08:30:43;;;;;;;12.40;2.10;;;18.60;87.50;;;;;;5053030;28;20094;-69
2021/08/17 08:33:09;;;;;;;15.45;2.25;;;18.30;88.00;;;;;;5052111;28;20477;-69
2021/08/17 08:35:35;;;;;;;16.92;3.08;;;18.30;88.80;;;;;;5052498;28;20025;-69
2021/08/17 08:38:01;;;;;;;24.50;2.78;;;18.50;89.10;;;;;;5051842;28;20063;-69
2021/08/17 08:40:26;;;;;;;11.68;2.95;;;18.20;88.50;;;;;;5052507;28;20025;-68
2021/08/17 08:42:53;;;;;;;12.77;2.30;;;18.30;89.10;;;;;;5051853;28;20057;-68
2021/08/17 08:45:19;;;;;;;9.07;2.70;;;18.40;88.80;;;;;;5051986;28;20032;-69
2021/08/17 08:47:45;;;;;;;11.20;3.20;;;18.50;88.30;;;;;;5051752;28;20495;-69
2021/08/17 08:50:11;;;;;;;10.32;2.60;;;18.50;87.20;;;;;;5051750;28;20439;-70
2021/08/17 08:52:37;;;;;;;13.35;2.78;;;18.50;87.20;;;;;;5051799;28;20360;-70
2021/08/17 08:55:08;;;;;;;16.27;3.25;;;18.50;87.40;;;;;;5052094;28;20024;-69
2021/08/17 08:57:35;;;;;;;16.98;2.05;;;18.30;87.40;;;;;;5051747;28;20041;-73
2021/08/17 09:00:02;;;;;;;13.15;3.40;;;18.50;87.60;;;;;;5051419;28;20076;-71
2021/08/17 09:02:30;;;;;;;14.68;3.47;;;18.40;87.70;;;;;;5051263;28;20116;-71
2021/08/17 09:04:58;;;;;;;12.52;3.22;;;18.40;87.40;;;;;;5050360;28;20025;-71
2021/08/17 09:07:39;;;;;;;11.10;3.55;;;18.30;87.30;;;;;;5051729;28;20013;-73
2021/08/17 09:10:13;;;;;;;11.77;3.35;;;18.40;87.70;;;;;;5051592;28;20053;-72
2021/08/17 09:12:44;;;;;;;14.25;3.20;;;18.40;87.60;;;;;;5051347;28;20033;-71
2021/08/17 09:15:17;;;;;;;11.68;3.00;;;18.50;87.50;;;;;;5050999;28;20067;-72
2021/08/17 09:17:43;;;;;;;15.57;3.85;;;18.30;87.10;;;;;;5050937;28;20048;-72
2021/08/17 09:20:14;;;;;;;19.33;3.70;;;18.40;87.80;;;;;;5050995;28;20070;-71
2021/08/17 09:22:41;;;;;;;11.05;3.28;;;18.30;87.60;;;;;;5049568;28;20160;-73
2021/08/17 09:25:07;;;;;;;15.50;4.28;;;18.40;87.20;;;;;;5050152;28;20047;-73
2021/08/17 09:27:35;;;;;;;18.05;4.22;;;18.40;87.70;;;;;;5050824;28;20159;-70
2021/08/17 09:30:06;;;;;;;16.77;4.15;;;18.40;88.10;;;;;;5049669;28;20043;-70
2021/08/17 09:32:32;;;;;;;22.13;4.78;;;18.50;88.40;;;;;;5049618;28;20430;-70
2021/08/17 09:35:00;;;;;;;12.90;3.75;;;18.30;88.90;;;;;;5051249;28;20123;-70
2021/08/17 09:37:32;;;;;;;14.18;3.88;;;18.20;89.30;;;;;;5051243;28;20024;-70
2021/08/17 09:39:59;;;;;;;18.77;3.80;;;18.40;89.40;;;;;;5051059;28;20045;-70
2021/08/17 09:42:32;;;;;;;13.48;3.83;;;18.30;89.20;;;;;;5050915;28;20025;-70
2021/08/17 09:45:17;;;;;;;13.48;3.85;;;18.20;89.60;;;;;;5051074;28;20029;-70
2021/08/17 09:47:55;;;;;;;13.57;4.60;;;18.30;89.30;;;;;;5049952;28;20045;-70
2021/08/17 09:50:34;;;;;;;17.42;4.30;;;18.40;89.20;;;;;;5050550;28;20513;-70
2021/08/17 09:53:20;;;;;;;14.68;4.35;;;18.40;88.80;;;;;;5050768;28;20037;-70
2021/08/17 09:55:56;;;;;;;16.75;4.28;;;18.10;88.80;;;;;;5050315;28;20021;-70
2021/08/17 09:58:31;;;;;;;11.63;3.90;;;18.10;89.30;;;;;;5051003;28;20029;-72
2021/08/17 10:01:00;;;;;;;17.92;4.65;;;18.30;89.60;;;;;;5050444;28;20041;-71
2021/08/17 10:03:27;;;;;;;9.25;3.05;;;18.30;89.60;;;;;;5050588;28;20068;-71
2021/08/17 10:05:53;;;;;;;8.63;3.30;;;18.20;89.60;;;;;;5050586;28;20021;-71
2021/08/17 10:08:21;;;;;;;13.55;3.90;;;18.20;89.60;;;;;;5050392;28;20032;-71
2021/08/17 10:10:49;;;;;;;14.48;4.40;;;18.10;89.40;;;;;;5049161;28;20029;-71
2021/08/17 10:13:17;;;;;;;13.68;4.07;;;18.00;89.00;;;;;;5051031;28;20033;-71
2021/08/17 10:15:44;;;;;;;14.43;4.55;;;18.00;89.20;;;;;;5050877;28;20037;-71
2021/08/17 10:18:13;;;;;;;10.07;3.63;;;18.10;89.00;;;;;;5050466;28;20532;-71
2021/08/17 10:20:41;;;;;;;8.80;3.40;;;18.20;88.90;;;;;;5050598;28;20307;-71
2021/08/17 10:23:08;;;;;;;;;;;18.40;88.30;;;;;;5050667;28;20048;-70
2021/08/17 10:25:47;;;;;;;12.55;3.83;;;18.50;87.70;;;;;;5050425;28;20331;-71
2021/08/17 10:28:32;;;;;;;12.55;4.47;;;18.50;86.90;;;;;;5053280;28;20036;-70
2021/08/17 10:31:13;;;;;;;9.38;3.35;;;18.50;86.80;;;;;;5054719;28;20132;-70
2021/08/17 10:33:46;;;;;;;10.52;3.72;;;18.50;86.70;;;;;;5054647;28;20037;-72
2021/08/17 10:36:32;;;;;;;11.18;3.85;;;18.50;87.10;;;;;;5054699;28;20484;-70
2021/08/17 10:38:58;;;;;;;14.27;4.55;;;18.60;86.40;;;;;;5054663;28;20031;-72
2021/08/17 10:41:29;;;;;;;9.27;4.50;;;18.70;86.70;;;;;;5054210;28;20029;-70
2021/08/17 10:43:55;;;;;;;13.50;3.95;;;18.70;85.40;;;;;;5054357;28;20388;-69
2021/08/17 10:46:56;;;;;;;13.02;4.18;;;18.80;85.80;;;;;;5054541;28;20438;-71
2021/08/17 10:49:28;;;;;;;10.63;4.60;;;18.70;85.70;;;;;;5054078;28;20041;-70
2021/08/17 10:51:57;;;;;;;14.13;4.70;;;18.80;85.80;;;;;;5054325;28;20045;-70
2021/08/17 10:54:23;;;;;;;9.90;4.45;;;18.70;85.30;;;;;;5053890;28;20037;-68
2021/08/17 10:56:49;;;;;;;14.60;5.00;;;18.80;85.30;;;;;;5054076;28;20029;-69
2021/08/17 10:59:34;;;;;;;13.35;5.43;;;18.70;85.60;;;;;;5054123;28;20347;-69
2021/08/17 11:02:00;;;;;;;15.93;6.57;;;18.70;85.40;;;;;;5053463;28;20060;-69
2021/08/17 11:04:39;;;;;;;13.80;5.88;;;18.70;85.30;;;;;;5054111;28;20049;-70
2021/08/17 11:07:31;;;;;;;19.13;6.82;;;18.50;86.00;;;;;;5053841;28;20118;-68
2021/08/17 11:09:58;;;;;;;11.45;5.68;;;18.50;86.50;;;;;;5053704;28;20181;-70
2021/08/17 11:12:35;;;;;;;16.80;5.22;;;18.50;86.80;;;;;;5053392;28;20033;-70
2021/08/17 11:15:04;;;;;;;14.15;6.13;;;18.50;86.40;;;;;;5053552;28;20578;-70
2021/08/17 11:17:29;;;;;;;14.02;5.72;;;18.50;85.80;;;;;;5053977;28;20114;-70
2021/08/17 11:19:56;;;;;;;15.82;6.20;;;18.50;86.20;;;;;;5053902;28;20578;-70
2021/08/17 11:22:25;;;;;;;9.98;5.07;;;18.50;86.00;;;;;;5053633;28;20032;-70
2021/08/17 11:24:57;;;;;;;13.45;6.22;;;18.50;86.10;;;;;;5053427;28;20033;-70
2021/08/17 11:27:35;;;;;;;12.95;5.90;;;18.60;86.30;;;;;;5053558;28;20028;-69
2021/08/17 11:30:07;;;;;;;13.88;5.75;;;18.50;85.90;;;;;;5053318;28;20029;-70
2021/08/17 11:32:38;;;;;;;14.45;6.95;;;18.50;85.30;;;;;;5053372;28;20036;-69
2021/08/17 11:35:30;;;;;;;15.88;7.85;;;18.60;85.90;;;;;;5053111;28;20521;-70
2021/08/17 11:37:57;;;;;;;17.98;6.43;;;18.60;85.70;;;;;;5052122;28;20638;-70
2021/08/17 11:40:25;;;;;;;15.23;7.50;;;18.70;85.50;;;;;;5052841;28;20033;-69
2021/08/17 11:42:56;;;;;;;14.90;6.85;;;18.80;84.70;;;;;;5052906;28;20489;-69
2021/08/17 11:45:29;;;;;;;21.60;7.40;;;18.90;84.50;;;;;;5053272;28;20029;-69
2021/08/17 11:47:56;;;;;;;18.52;7.03;;;19.00;83.60;;;;;;5052994;28;20036;-70
2021/08/17 11:50:23;;;;;;;16.10;7.55;;;19.20;83.10;;;;;;5053150;28;20025;-69
2021/08/17 11:52:53;;;;;;;17.73;6.95;;;19.30;82.80;;;;;;5053077;28;20033;-69
2021/08/17 11:55:20;;;;;;;15.50;7.45;;;19.30;82.50;;;;;;5053771;28;20044;-68
2021/08/17 11:58:07;;;;;;;18.73;7.80;;;19.20;81.60;;;;;;5052888;28;20140;-69
2021/08/17 12:00:33;;;;;;;17.50;7.38;;;19.40;81.80;;;;;;5052794;28;20025;-68
2021/08/17 12:03:00;;;;;;;16.20;7.38;;;19.40;81.10;;;;;;5052532;28;20029;-68
2021/08/17 12:05:28;;;;;;;16.20;6.97;;;19.50;81.50;;;;;;5052834;28;20033;-68
2021/08/17 12:07:56;;;;;;;14.10;7.60;;;19.40;81.30;;;;;;5052542;28;20033;-68
2021/08/17 12:10:29;;;;;;;17.15;7.72;;;19.50;81.20;;;;;;5052963;28;20360;-69
2021/08/17 12:13:09;;;;;;;16.20;7.88;;;19.50;81.30;;;;;;5052695;28;20049;-68
2021/08/17 12:15:56;;;;;;;16.45;7.43;;;19.30;81.60;;;;;;5052761;28;20422;-69
2021/08/17 12:18:31;;;;;;;17.87;8.40;;;19.30;81.50;;;;;;5052705;28;20040;-68
2021/08/17 12:21:07;;;;;;;16.63;8.25;;;19.30;81.70;;;;;;5052486;28;20033;-68
2021/08/17 12:23:34;;;;;;;17.77;7.95;;;19.50;82.30;;;;;;5052339;28;20053;-68
2021/08/17 12:26:22;;;;;;;20.50;8.52;;;19.50;81.80;;;;;;5052638;28;20049;-69
2021/08/17 12:28:52;;;;;;;;;;;19.40;81.60;;;;;;5052992;28;22493;-69
2021/08/17 12:31:30;;;;;;;16.65;8.82;;;19.40;81.70;;;;;;5052847;28;19992;-68
2021/08/17 12:34:05;;;;;;;14.75;8.18;;;19.50;81.60;;;;;;5052620;28;20041;-70
2021/08/17 12:36:37;;;;;;;31.88;11.52;;;19.60;81.80;;;;;;5052251;28;20033;-70
2021/08/17 12:39:36;;;;;;;18.45;8.68;;;19.60;82.30;;;;;;5051795;28;20025;-67
2021/08/17 12:42:06;;;;;;;18.70;8.13;;;19.60;81.60;;;;;;5047675;28;20027;-70